KTBR/TBR METAR and TAF weather

Enter ICAO airport designator
Station Type Date Time Source
KTBR METAR 2020/04/04 05:15 UTC NOAA

KTBR 040515Z AUTO 00000KT 10SM CLR 11/10 A2994 RMK AO2 T01120095


Station Type Date Time Source
KTBR Decoded METAR 2020/04/04 05:15 UTC NOAA

Statesboro, Statesboro-Bulloch County Airport, GA, United States (KTBR) 32-28-59N 081-44-14W
Apr 04, 2020 - 01:15 AM EDT / 2020.04.04 0515 UTC
Wind: Calm:0
Visibility: 10 mile(s):0
Sky conditions: clear
Temperature: 52.2 F (11.2 C)
Dew Point: 49.1 F (9.5 C)
Relative Humidity: 89%
Pressure (altimeter): 29.94 in. Hg (1013 hPa)
ob: KTBR 040515Z AUTO 00000KT 10SM CLR 11/10 A2994 RMK AO2 T01120095
cycle: 5

Station Type Date Time Source
KTBR TAF UTC NOAA

Error!

Example: see airport list